Time;durP1;ratioP1;P1;durP2;ratioP2;P2;SDS_P1;SDS_P2;PMS_P1;PMS_P2;Temp;Humidity;BMP_temperature;BMP_pressure;BME280_temperature;BME280_humidity;BME280_pressure;Samples;Min_cycle;Max_cycle;Signal;HPM_P1;HPM_P2
2024/03/24 00:00:27;;;;;;;7.73;4.40;;;;;;;5.57;82.10;99165.94;4937022;29;20216;-65
2024/03/24 00:02:53;;;;;;;7.17;4.97;;;;;;;5.57;81.85;99168.50;4938418;29;20213;-65
2024/03/24 00:05:20;;;;;;;9.17;5.00;;;;;;;5.54;81.30;99153.19;4938427;29;20220;-67
2024/03/24 00:07:46;;;;;;;6.60;4.80;;;;;;;5.51;81.62;99158.28;4934814;29;20224;-62
2024/03/24 00:10:15;;;;;;;7.47;4.77;;;;;;;5.50;81.81;99154.06;4933068;29;20206;-66
2024/03/24 00:12:43;;;;;;;9.13;5.00;;;;;;;5.46;81.74;99175.38;4937970;29;20236;-63
2024/03/24 00:15:10;;;;;;;6.67;5.43;;;;;;;5.40;81.46;99168.56;4935773;29;20214;-65
2024/03/24 00:17:36;;;;;;;6.90;4.80;;;;;;;5.41;82.56;99166.84;4935825;28;20233;-67
2024/03/24 00:20:03;;;;;;;7.47;5.00;;;;;;;5.40;81.67;99175.38;4937907;29;20228;-64
2024/03/24 00:22:29;;;;;;;9.03;5.63;;;;;;;5.35;81.61;99164.34;4945069;28;20680;-64
2024/03/24 00:24:56;;;;;;;8.90;5.53;;;;;;;5.39;82.37;99172.00;4936700;29;20210;-64
2024/03/24 00:27:22;;;;;;;7.70;5.40;;;;;;;5.36;82.04;99169.44;4943476;29;20264;-66
2024/03/24 00:29:50;;;;;;;9.93;5.60;;;;;;;5.33;81.32;99160.06;4934419;29;20239;-64
2024/03/24 00:32:16;;;;;;;9.70;5.50;;;;;;;5.35;82.23;99169.47;4936423;29;20214;-66
2024/03/24 00:34:45;;;;;;;8.07;5.80;;;;;;;5.40;82.14;99166.00;4932193;28;20699;-65
2024/03/24 00:37:11;;;;;;;10.23;5.23;;;;;;;5.38;82.06;99161.78;4937811;29;20233;-66
2024/03/24 00:39:38;;;;;;;11.07;5.53;;;;;;;5.34;81.57;99163.50;4937030;29;20293;-64
2024/03/24 00:42:04;;;;;;;7.00;6.03;;;;;;;5.26;81.29;99157.56;4937039;29;20260;-63
2024/03/24 00:44:32;;;;;;;8.30;5.60;;;;;;;5.23;82.46;99161.00;4937177;29;20224;-62
2024/03/24 00:47:00;;;;;;;12.07;6.43;;;;;;;5.19;81.71;99151.66;4937312;29;20206;-71
2024/03/24 00:49:27;;;;;;;7.63;5.90;;;;;;;5.17;82.07;99147.41;4936012;29;20224;-65
2024/03/24 00:51:53;;;;;;;8.30;5.63;;;;;;;5.14;82.43;99147.41;4936202;29;20683;-65
2024/03/24 00:54:20;;;;;;;8.80;5.50;;;;;;;5.14;82.35;99145.69;4939828;29;20201;-66
2024/03/24 00:56:46;;;;;;;8.10;5.03;;;;;;;5.15;82.65;99132.06;4937234;28;20240;-65
2024/03/24 00:59:13;;;;;;;6.87;4.53;;;;;;;5.13;81.41;99136.34;4937269;29;20213;-66
2024/03/24 01:01:38;;;;;;;9.50;4.70;;;;;;;5.11;82.49;99132.94;4936599;29;20210;-64
2024/03/24 01:04:08;;;;;;;6.27;4.37;;;;;;;5.11;82.53;99120.19;4937326;28;20241;-64
2024/03/24 01:06:34;;;;;;;5.53;4.30;;;;;;;5.10;81.83;99126.16;4933468;29;20220;-65
2024/03/24 01:09:03;;;;;;;4.90;3.97;;;;;;;5.04;81.52;99129.59;4935800;29;20217;-64
2024/03/24 01:11:29;;;;;;;7.93;4.23;;;;;;;4.98;81.54;99133.88;4936992;29;20217;-64
2024/03/24 01:13:56;;;;;;;4.83;3.40;;;;;;;4.95;82.96;99124.50;4935675;29;20201;-65
2024/03/24 01:16:22;;;;;;;5.37;3.40;;;;;;;4.96;82.62;99117.69;4932607;29;20280;-66
2024/03/24 01:18:49;;;;;;;5.77;3.30;;;;;;;4.93;82.19;99123.66;4936619;29;20875;-65
2024/03/24 01:21:16;;;;;;;6.30;3.63;;;;;;;4.88;82.81;99120.28;4936323;29;20221;-63
2024/03/24 01:23:43;;;;;;;5.40;3.20;;;;;;;4.91;81.98;99127.09;4936115;29;20221;-65
2024/03/24 01:26:09;;;;;;;4.60;3.57;;;;;;;4.85;82.26;99126.22;4936927;29;20224;-63
2024/03/24 01:28:36;;;;;;;4.17;3.27;;;;;;;4.79;83.48;99131.38;4936408;29;20292;-65
2024/03/24 01:31:02;;;;;;;8.53;3.77;;;;;;;4.76;83.62;99123.72;4936540;29;20213;-63
2024/03/24 01:33:29;;;;;;;3.50;3.00;;;;;;;4.78;83.35;99126.25;4934522;29;20568;-65
2024/03/24 01:35:55;;;;;;;5.27;3.50;;;;;;;4.76;83.58;99131.38;4935992;29;20568;-67
2024/03/24 01:38:23;;;;;;;5.40;3.33;;;;;;;4.77;83.75;99132.22;4934780;29;20229;-64
2024/03/24 01:40:50;;;;;;;6.87;3.23;;;;;;;4.76;83.80;99126.28;4936088;29;20236;-63
2024/03/24 01:43:17;;;;;;;5.50;2.53;;;;;;;4.79;84.03;99120.31;4936467;29;20213;-63
2024/03/24 01:45:44;;;;;;;5.90;2.50;;;;;;;4.78;83.73;99119.44;4936633;29;20205;-62
2024/03/24 01:48:11;;;;;;;3.70;2.87;;;;;;;4.79;83.40;99117.78;4936421;29;20584;-63
2024/03/24 01:50:38;;;;;;;4.07;2.47;;;;;;;4.79;82.91;99103.31;4933559;29;20220;-61
2024/03/24 01:53:08;;;;;;;4.40;2.77;;;;;;;4.79;83.26;99105.00;4936264;29;20205;-61
2024/03/24 01:55:37;;;;;;;5.20;3.13;;;;;;;4.79;82.87;99108.41;4934655;28;20280;-67
2024/03/24 01:58:05;;;;;;;3.73;2.60;;;;;;;4.77;83.40;99110.09;4935797;29;20230;-62
2024/03/24 02:00:31;;;;;;;5.27;3.33;;;;;;;4.77;83.57;99122.00;4936327;29;20645;-62
2024/03/24 02:02:58;;;;;;;5.10;3.40;;;;;;;4.69;83.10;99108.44;4935911;29;20213;-63
2024/03/24 02:05:25;;;;;;;4.17;2.67;;;;;;;4.61;83.09;99103.34;4935923;29;20209;-61
2024/03/24 02:07:52;;;;;;;5.20;3.30;;;;;;;4.52;83.74;99104.22;4934936;28;20214;-62
2024/03/24 02:10:19;;;;;;;5.10;3.13;;;;;;;4.47;84.16;99094.88;4929759;29;20236;-64
2024/03/24 02:12:47;;;;;;;4.57;2.93;;;;;;;4.46;84.67;99090.66;4937888;28;20582;-62
2024/03/24 02:15:13;;;;;;;4.90;3.00;;;;;;;4.44;84.05;99088.09;4934799;29;20217;-65
2024/03/24 02:17:40;;;;;;;5.67;2.90;;;;;;;4.45;84.58;99091.47;4935800;28;20244;-63
2024/03/24 02:20:08;;;;;;;5.27;3.20;;;;;;;4.44;84.25;99102.53;4935260;29;20688;-63
2024/03/24 02:22:40;;;;;;;4.70;3.47;;;;;;;4.40;84.77;99109.34;4936150;29;20591;-61
2024/03/24 02:25:09;;;;;;;7.63;3.63;;;;;;;4.41;85.09;99105.94;4934665;29;20221;-63
2024/03/24 02:27:38;;;;;;;5.33;2.83;;;;;;;4.41;84.11;99097.44;4929842;29;20209;-64
2024/03/24 02:30:10;;;;;;;6.57;3.17;;;;;;;4.36;85.02;99095.75;4935873;29;20206;-63
2024/03/24 02:32:38;;;;;;;5.73;3.20;;;;;;;4.33;84.41;99080.44;4938096;29;20217;-62
2024/03/24 02:35:04;;;;;;;7.10;2.93;;;;;;;4.32;85.48;99083.00;4937698;29;20212;-63
2024/03/24 02:37:31;;;;;;;6.50;3.87;;;;;;;4.30;85.77;99090.66;4945158;28;20691;-63
2024/03/24 02:39:58;;;;;;;5.23;3.10;;;;;;;4.27;84.76;99100.88;4935882;29;20221;-63
2024/03/24 02:42:26;;;;;;;3.93;3.33;;;;;;;4.28;85.70;99109.38;4936142;29;20209;-63
2024/03/24 02:44:52;;;;;;;4.03;3.10;;;;;;;4.29;85.46;99114.47;4928501;29;20205;-62
2024/03/24 02:47:19;;;;;;;5.37;3.37;;;;;;;4.32;85.39;99113.63;4937664;29;20212;-63
2024/03/24 02:49:45;;;;;;;3.87;3.27;;;;;;;4.35;85.13;99129.75;4939011;29;20225;-63
2024/03/24 02:52:12;;;;;;;7.13;3.60;;;;;;;4.35;85.03;99129.75;4939538;29;20295;-61
2024/03/24 02:54:38;;;;;;;7.87;4.00;;;;;;;4.29;84.65;99127.22;4938456;29;20217;-62
2024/03/24 02:57:07;;;;;;;4.53;3.60;;;;;;;4.23;84.23;99137.41;4936206;29;20727;-63
2024/03/24 02:59:33;;;;;;;8.03;4.17;;;;;;;4.20;85.17;99142.53;4923750;29;20213;-62
2024/03/24 03:02:00;;;;;;;7.63;4.47;;;;;;;4.15;85.31;99145.91;4932451;29;20265;-62
2024/03/24 03:04:27;;;;;;;7.80;5.17;;;;;;;4.07;85.79;99148.47;4937302;28;20213;-61
2024/03/24 03:06:54;;;;;;;7.13;4.50;;;;;;;4.03;86.36;99160.34;4939275;29;20220;-62
2024/03/24 03:09:20;;;;;;;5.57;4.27;;;;;;;4.02;86.70;99166.31;4939170;29;20209;-67
2024/03/24 03:11:48;;;;;;;6.77;5.27;;;;;;;3.98;86.33;99169.72;4937887;29;20218;-61
2024/03/24 03:14:16;;;;;;;7.17;4.70;;;;;;;3.95;87.12;99169.72;4937843;29;20209;-61
2024/03/24 03:16:42;;;;;;;8.60;5.50;;;;;;;3.91;87.65;99162.06;4941080;29;20217;-62
2024/03/24 03:19:09;;;;;;;7.83;5.20;;;;;;;3.94;87.88;99167.13;4936065;28;20259;-67
2024/03/24 03:21:34;;;;;;;8.70;4.93;;;;;;;3.92;87.34;99154.41;4936952;29;20217;-62
2024/03/24 03:24:02;;;;;;;6.83;5.00;;;;;;;3.93;88.05;99145.06;4938759;29;20232;-62
2024/03/24 03:26:28;;;;;;;10.73;5.83;;;;;;;3.91;88.28;99136.59;4942995;28;20225;-62
2024/03/24 03:28:55;;;;;;;7.87;5.77;;;;;;;3.96;87.19;99150.16;4939928;29;20619;-61
2024/03/24 03:31:22;;;;;;;8.00;5.43;;;;;;;3.95;87.63;99148.47;4938837;29;20209;-62
2024/03/24 03:33:49;;;;;;;8.10;5.17;;;;;;;3.90;87.84;99151.00;4938120;29;20209;-62
2024/03/24 03:36:15;;;;;;;8.33;5.30;;;;;;;3.92;88.63;99146.75;4938393;28;20212;-66
2024/03/24 03:38:42;;;;;;;6.97;5.40;;;;;;;3.95;88.15;99146.78;4939383;29;20233;-62
2024/03/24 03:41:08;;;;;;;8.13;5.83;;;;;;;3.95;87.70;99149.31;4938358;29;20224;-61
2024/03/24 03:43:35;;;;;;;8.97;5.70;;;;;;;3.92;88.11;99133.19;4938020;29;20568;-61
2024/03/24 03:46:01;;;;;;;9.77;6.33;;;;;;;3.97;88.70;99134.00;4938780;29;20217;-61
2024/03/24 03:48:30;;;;;;;9.80;6.37;;;;;;;4.00;88.30;99122.13;4938712;29;20653;-60
2024/03/24 03:50:56;;;;;;;11.63;7.17;;;;;;;4.03;87.68;99123.84;4938167;29;20209;-63
2024/03/24 03:53:24;;;;;;;10.27;7.00;;;;;;;4.02;88.10;99129.78;4938529;29;20357;-63
2024/03/24 03:55:51;;;;;;;11.50;6.97;;;;;;;4.01;87.51;99122.97;4937978;29;20292;-60
2024/03/24 03:58:18;;;;;;;10.93;7.10;;;;;;;3.99;87.55;99119.59;4937742;28;20797;-64
2024/03/24 04:00:45;;;;;;;10.43;7.70;;;;;;;3.96;87.53;99114.47;4940148;29;20217;-62
2024/03/24 04:03:12;;;;;;;11.73;7.07;;;;;;;3.92;87.14;99108.53;4944135;29;20201;-65
2024/03/24 04:05:40;;;;;;;8.53;6.27;;;;;;;3.91;87.44;99109.41;4937684;29;20228;-61
2024/03/24 04:08:08;;;;;;;10.40;7.03;;;;;;;3.91;87.90;99106.84;4936700;29;20209;-59
2024/03/24 04:10:34;;;;;;;8.57;6.87;;;;;;;3.92;87.85;99102.59;4938037;28;20256;-60
2024/03/24 04:13:01;;;;;;;10.27;6.37;;;;;;;3.91;87.45;99100.91;4936685;29;20210;-61
2024/03/24 04:15:27;;;;;;;10.60;7.00;;;;;;;3.90;87.43;99099.19;4938315;28;20581;-61
2024/03/24 04:17:54;;;;;;;8.00;5.40;;;;;;;3.90;88.33;99091.53;4937140;28;20249;-62
2024/03/24 04:20:20;;;;;;;6.73;5.30;;;;;;;3.92;87.92;99089.84;4938412;29;20210;-60
2024/03/24 04:22:49;;;;;;;8.77;5.90;;;;;;;3.90;87.47;99087.28;4937950;29;20252;-61
2024/03/24 04:25:15;;;;;;;8.23;5.30;;;;;;;3.91;87.36;99096.66;4933310;28;20221;-60
2024/03/24 04:27:43;;;;;;;7.47;4.87;;;;;;;3.90;88.21;99087.28;4938735;29;20209;-61
2024/03/24 04:30:12;;;;;;;7.50;4.67;;;;;;;3.92;87.06;99092.41;4942799;28;20217;-61
2024/03/24 04:32:39;;;;;;;10.70;5.30;;;;;;;3.90;87.17;99086.44;4938088;29;20217;-61
2024/03/24 04:35:08;;;;;;;8.67;4.90;;;;;;;3.91;86.55;99100.91;4937832;29;20583;-60
2024/03/24 04:37:35;;;;;;;6.70;4.10;;;;;;;3.82;86.98;99086.44;4937466;29;20616;-58
2024/03/24 04:40:05;;;;;;;9.83;4.63;;;;;;;3.82;88.54;99092.38;4934602;29;20669;-59
2024/03/24 04:42:32;;;;;;;7.53;4.47;;;;;;;3.86;87.85;99098.34;4934140;29;20217;-60
2024/03/24 04:45:00;;;;;;;7.70;4.83;;;;;;;3.85;87.65;99097.50;4938189;28;20210;-62
2024/03/24 04:47:28;;;;;;;7.33;4.43;;;;;;;3.87;88.17;99106.00;4939629;29;20623;-60
2024/03/24 04:49:55;;;;;;;9.00;4.63;;;;;;;3.87;87.33;99100.06;4937728;29;20221;-59
2024/03/24 04:52:21;;;;;;;6.53;4.90;;;;;;;3.83;88.21;99108.56;4937005;29;20680;-60
2024/03/24 04:54:48;;;;;;;8.07;5.33;;;;;;;3.80;87.86;99117.03;4937589;29;20579;-59
2024/03/24 04:57:16;;;;;;;6.63;4.50;;;;;;;3.76;87.87;99107.69;4932479;28;21565;-60
2024/03/24 04:59:43;;;;;;;6.67;4.73;;;;;;;3.80;89.17;99114.47;4931564;29;20221;-67
2024/03/24 05:02:09;;;;;;;7.17;4.43;;;;;;;3.82;88.52;99120.41;4937565;29;20788;-60
2024/03/24 05:04:36;;;;;;;6.17;4.93;;;;;;;3.80;88.68;99121.28;4937086;29;20221;-60
2024/03/24 05:07:02;;;;;;;8.67;4.77;;;;;;;3.78;88.09;99115.31;4936848;29;20576;-68
2024/03/24 05:09:29;;;;;;;8.50;5.07;;;;;;;3.78;88.79;99116.16;4932827;29;20221;-60
2024/03/24 05:11:56;;;;;;;8.40;4.70;;;;;;;3.83;89.15;99111.94;4938245;29;20213;-70
2024/03/24 05:14:24;;;;;;;10.77;4.70;;;;;;;3.83;88.84;99114.50;4933695;29;20221;-64
2024/03/24 05:16:51;;;;;;;10.30;5.33;;;;;;;3.87;88.28;99111.09;4930787;29;20229;-63
2024/03/24 05:19:18;;;;;;;7.00;5.00;;;;;;;3.90;88.70;99109.38;4935676;29;20252;-63
2024/03/24 05:21:45;;;;;;;7.90;4.63;;;;;;;3.91;88.48;99113.66;4936758;29;20213;-63
2024/03/24 05:24:13;;;;;;;7.23;4.67;;;;;;;3.93;88.59;99105.13;4935339;29;20676;-63
2024/03/24 05:26:38;;;;;;;9.83;5.27;;;;;;;3.96;87.14;99114.47;4937082;29;20661;-63
2024/03/24 05:29:05;;;;;;;9.70;4.93;;;;;;;3.97;88.41;99111.94;4936832;29;20209;-63
2024/03/24 05:31:33;;;;;;;9.63;5.20;;;;;;;4.01;88.02;99100.03;4935069;29;20221;-64
2024/03/24 05:34:00;;;;;;;7.07;5.23;;;;;;;4.01;88.32;99111.06;4936453;29;20678;-64
2024/03/24 05:36:27;;;;;;;8.47;5.43;;;;;;;3.97;88.23;99100.88;4932093;29;20209;-64
2024/03/24 05:38:54;;;;;;;9.60;5.43;;;;;;;3.98;88.99;99100.06;4935354;29;20725;-63
2024/03/24 05:41:20;;;;;;;9.63;5.27;;;;;;;4.05;89.18;99096.63;4935133;28;20217;-62
2024/03/24 05:43:47;;;;;;;7.00;5.30;;;;;;;4.11;88.38;99099.19;4936512;29;20217;-61
2024/03/24 05:46:13;;;;;;;8.70;5.70;;;;;;;4.14;88.06;99101.72;4937333;29;20649;-67
2024/03/24 05:48:42;;;;;;;10.27;5.67;;;;;;;4.19;87.90;99097.47;4936488;29;20206;-61
2024/03/24 05:51:08;;;;;;;6.97;5.80;;;;;;;4.27;88.52;99108.53;4936209;29;20213;-65
2024/03/24 05:53:35;;;;;;;10.07;6.30;;;;;;;4.31;87.53;99101.72;4934214;28;20639;-64
2024/03/24 05:56:02;;;;;;;9.83;6.20;;;;;;;4.34;87.53;99104.25;4928928;29;20218;-62
2024/03/24 05:58:29;;;;;;;10.87;6.57;;;;;;;4.36;86.89;99105.94;4934651;29;20632;-65
2024/03/24 06:00:55;;;;;;;13.53;7.20;;;;;;;4.39;87.29;99104.25;4935021;29;20740;-63
2024/03/24 06:03:23;;;;;;;11.17;7.90;;;;;;;4.41;86.06;99107.63;4935617;29;20205;-62
2024/03/24 06:05:51;;;;;;;9.57;6.73;;;;;;;4.36;86.39;99100.00;4935270;28;20270;-62
2024/03/24 06:08:17;;;;;;;12.50;8.20;;;;;;;4.36;87.00;99110.22;4936140;29;20201;-64
2024/03/24 06:10:44;;;;;;;11.97;7.33;;;;;;;4.34;87.10;99102.56;4936308;29;20213;-64
2024/03/24 06:13:12;;;;;;;11.63;8.43;;;;;;;4.34;87.30;99102.56;4931856;29;20680;-64
2024/03/24 06:15:39;;;;;;;12.97;8.77;;;;;;;4.36;87.13;99105.94;4936160;29;20610;-64
2024/03/24 06:18:07;;;;;;;14.20;9.37;;;;;;;4.35;86.76;99105.97;4938223;28;20719;-59
2024/03/24 06:20:33;;;;;;;14.47;8.90;;;;;;;4.25;87.32;99102.56;4943883;29;20213;-62
2024/03/24 06:23:02;;;;;;;12.57;8.80;;;;;;;4.27;87.67;99100.00;4936314;29;20347;-63
2024/03/24 06:25:28;;;;;;;10.73;8.37;;;;;;;4.33;88.45;99105.09;4935892;28;20228;-62
2024/03/24 06:27:56;;;;;;;15.33;8.90;;;;;;;4.43;88.51;99101.69;4939539;29;20217;-63
2024/03/24 06:30:22;;;;;;;13.00;9.57;;;;;;;4.47;86.40;99102.53;4935134;29;20677;-63
2024/03/24 06:32:49;;;;;;;13.73;9.27;;;;;;;4.47;86.99;99103.38;4935543;29;20221;-62
2024/03/24 06:35:15;;;;;;;16.07;10.23;;;;;;;4.49;86.63;99094.03;4934770;29;20217;-61
2024/03/24 06:37:42;;;;;;;15.43;9.77;;;;;;;4.52;87.01;99100.81;4935282;29;20236;-60
2024/03/24 06:40:11;;;;;;;15.67;9.93;;;;;;;4.52;86.91;99088.91;4934733;29;20213;-62
2024/03/24 06:42:43;;;;;;;13.30;10.40;;;;;;;4.54;86.72;99094.03;4933758;29;20221;-61
2024/03/24 06:45:09;;;;;;;15.27;11.40;;;;;;;4.53;86.19;99105.09;4935683;29;20205;-63
2024/03/24 06:47:36;;;;;;;15.53;10.70;;;;;;;4.43;86.38;99100.84;4932348;29;20220;-60
2024/03/24 06:50:03;;;;;;;17.00;11.23;;;;;;;4.41;87.25;99112.75;4934467;29;20210;-60
2024/03/24 06:52:32;;;;;;;14.73;10.20;;;;;;;4.42;87.38;99105.09;4935706;29;20228;-61
2024/03/24 06:54:58;;;;;;;13.07;10.73;;;;;;;4.44;86.40;99105.09;4934757;28;20213;-60
2024/03/24 06:57:27;;;;;;;16.23;11.43;;;;;;;4.36;86.03;99100.84;4936000;29;20599;-62
2024/03/24 06:59:53;;;;;;;15.83;10.60;;;;;;;4.24;85.88;99098.34;4935242;29;20750;-62
2024/03/24 07:02:20;;;;;;;14.60;11.40;;;;;;;4.14;87.09;99099.19;4934780;29;20288;-62
2024/03/24 07:04:46;;;;;;;14.90;10.30;;;;;;;4.11;87.29;99104.28;4933724;28;20236;-65
2024/03/24 07:07:13;;;;;;;16.33;10.77;;;;;;;4.15;87.77;99105.97;4941065;28;20224;-62
2024/03/24 07:09:38;;;;;;;17.13;11.30;;;;;;;4.23;88.11;99104.25;4930810;29;20213;-64
2024/03/24 07:12:06;;;;;;;14.63;10.13;;;;;;;4.28;86.56;99112.78;4933717;29;20239;-61
2024/03/24 07:14:33;;;;;;;14.60;10.93;;;;;;;4.27;85.83;99117.84;4935280;29;20220;-61
2024/03/24 07:17:00;;;;;;;14.80;10.37;;;;;;;4.20;87.83;99114.47;4932992;29;20629;-64
2024/03/24 07:19:26;;;;;;;15.77;10.90;;;;;;;4.20;87.12;99119.59;4934924;29;20730;-61
2024/03/24 07:21:53;;;;;;;13.10;10.03;;;;;;;4.13;86.09;99112.78;4932391;29;20217;-61
2024/03/24 07:24:20;;;;;;;13.47;9.53;;;;;;;4.08;87.00;99112.78;4934883;29;20214;-62
2024/03/24 07:26:47;;;;;;;15.77;10.20;;;;;;;4.08;86.58;99115.31;4930413;29;20240;-61
2024/03/24 07:29:13;;;;;;;13.87;9.77;;;;;;;4.08;86.42;99115.31;4931187;29;20221;-65
2024/03/24 07:31:42;;;;;;;13.17;10.30;;;;;;;4.18;86.31;99125.53;4933322;28;20217;-62
2024/03/24 07:34:08;;;;;;;13.97;9.77;;;;;;;4.19;85.88;99122.97;4936320;29;20201;-61
2024/03/24 07:36:35;;;;;;;14.30;10.33;;;;;;;4.21;85.09;99126.38;4938912;29;20206;-64
2024/03/24 07:39:01;;;;;;;12.50;9.07;;;;;;;4.23;86.29;99126.34;4938846;29;20237;-63
2024/03/24 07:41:28;;;;;;;16.30;10.00;;;;;;;4.25;85.78;99127.22;4935760;28;20240;-61
2024/03/24 07:43:53;;;;;;;14.47;9.93;;;;;;;4.23;85.40;99131.47;4933701;29;20233;-65
2024/03/24 07:46:21;;;;;;;13.50;9.10;;;;;;;4.27;85.41;99133.16;4939152;29;20584;-65
2024/03/24 07:48:48;;;;;;;13.80;10.20;;;;;;;4.27;85.11;99133.16;4939394;29;20218;-62
2024/03/24 07:51:15;;;;;;;17.80;10.87;;;;;;;4.26;85.76;99136.56;4938643;29;20217;-65
2024/03/24 07:53:41;;;;;;;12.07;9.97;;;;;;;4.26;85.75;99139.09;4938420;29;20688;-63
2024/03/24 07:56:08;;;;;;;11.83;9.77;;;;;;;4.23;86.47;99136.56;4937637;29;20209;-63
2024/03/24 07:58:34;;;;;;;15.90;10.80;;;;;;;4.27;86.33;99138.25;4933714;28;20233;-64
2024/03/24 08:01:01;;;;;;;15.13;11.20;;;;;;;4.27;86.23;99136.56;4936386;29;20257;-64
2024/03/24 08:03:27;;;;;;;15.90;11.60;;;;;;;4.24;85.76;99131.47;4940547;29;20213;-61
2024/03/24 08:05:55;;;;;;;17.60;11.47;;;;;;;4.22;86.45;99133.16;4938093;29;20221;-63
2024/03/24 08:08:21;;;;;;;15.93;11.10;;;;;;;4.25;87.64;99142.53;4937111;29;20213;-64
2024/03/24 08:10:48;;;;;;;17.70;12.83;;;;;;;4.29;86.96;99136.56;4935494;29;20268;-64
2024/03/24 08:13:14;;;;;;;17.23;10.53;;;;;;;4.30;87.78;99134.00;4939225;29;20224;-63
2024/03/24 08:15:41;;;;;;;17.17;11.43;;;;;;;4.41;86.21;99134.00;4932983;29;20696;-64
2024/03/24 08:18:06;;;;;;;16.83;12.10;;;;;;;4.41;86.12;99133.16;4937883;29;20253;-64
2024/03/24 08:20:33;;;;;;;16.83;11.90;;;;;;;4.40;85.78;99141.66;4938232;29;20218;-63
2024/03/24 08:23:03;;;;;;;15.87;12.30;;;;;;;4.40;86.10;99151.84;4938167;29;20210;-64
2024/03/24 08:25:30;;;;;;;14.97;10.90;;;;;;;4.39;86.65;99148.47;4937995;28;20214;-63
2024/03/24 08:27:56;;;;;;;15.33;12.00;;;;;;;4.42;85.85;99155.25;4935280;29;20661;-62
2024/03/24 08:30:23;;;;;;;14.13;10.77;;;;;;;4.34;85.86;99156.13;4931140;28;20289;-58
2024/03/24 08:32:52;;;;;;;13.73;10.33;;;;;;;4.31;85.91;99156.13;4934421;29;20209;-61
2024/03/24 08:35:20;;;;;;;13.10;10.07;;;;;;;4.36;86.36;99156.13;4934151;29;20213;-60
2024/03/24 08:37:49;;;;;;;12.20;9.27;;;;;;;4.33;85.51;99154.41;4937207;29;20224;-61
2024/03/24 08:40:17;;;;;;;12.77;9.00;;;;;;;4.39;85.20;99165.47;4929730;29;20214;-61
2024/03/24 08:42:43;;;;;;;14.47;9.77;;;;;;;4.36;84.92;99162.06;4938584;29;20632;-58
2024/03/24 08:45:10;;;;;;;13.47;8.93;;;;;;;4.32;84.29;99162.91;4936509;29;20221;-60
2024/03/24 08:47:36;;;;;;;14.03;9.13;;;;;;;4.35;85.50;99157.81;4937514;29;20217;-58
2024/03/24 08:50:04;;;;;;;13.23;8.57;;;;;;;4.42;84.78;99152.69;4931064;29;20675;-60
2024/03/24 08:52:30;;;;;;;10.00;8.07;;;;;;;4.56;84.96;99162.03;4936071;28;20213;-63
2024/03/24 08:54:57;;;;;;;11.57;8.07;;;;;;;4.63;83.48;99170.53;4936855;29;20225;-62
2024/03/24 08:57:25;;;;;;;12.67;7.87;;;;;;;4.63;82.76;99155.22;4929723;29;20225;-62
2024/03/24 08:59:54;;;;;;;14.27;9.30;;;;;;;4.66;83.44;99159.47;4936979;29;20225;-64
2024/03/24 09:02:20;;;;;;;11.20;7.30;;;;;;;4.74;83.26;99153.47;4934253;29;20206;-65
2024/03/24 09:04:48;;;;;;;10.27;7.33;;;;;;;4.81;82.99;99154.31;4937256;29;20241;-67
2024/03/24 09:07:14;;;;;;;9.27;7.03;;;;;;;4.95;82.94;99154.28;4937080;29;20216;-65
2024/03/24 09:09:43;;;;;;;9.77;7.20;;;;;;;4.98;80.02;99157.69;4928195;29;20292;-67
2024/03/24 09:12:09;;;;;;;8.70;7.17;;;;;;;4.96;81.25;99144.06;4935685;29;20210;-63
2024/03/24 09:14:40;;;;;;;9.73;6.67;;;;;;;5.04;80.31;99157.69;4934855;29;20213;-63
2024/03/24 09:17:06;;;;;;;11.23;7.17;;;;;;;5.12;79.23;99162.75;4935697;29;20214;-63
2024/03/24 09:19:33;;;;;;;8.40;6.80;;;;;;;5.10;78.37;99156.78;4936860;29;20685;-64
2024/03/24 09:22:00;;;;;;;8.30;6.23;;;;;;;5.16;77.78;99164.44;4937208;29;20205;-63
2024/03/24 09:24:27;;;;;;;7.70;5.87;;;;;;;5.15;78.10;99164.41;4937434;28;20236;-62
2024/03/24 09:26:57;;;;;;;8.33;6.23;;;;;;;5.04;78.07;99159.34;4936686;29;20220;-66
2024/03/24 09:29:24;;;;;;;9.23;6.20;;;;;;;5.06;78.90;99157.66;4934721;28;20213;-61
2024/03/24 09:31:51;;;;;;;9.77;7.40;;;;;;;5.09;79.22;99161.03;4938096;29;20594;-63
2024/03/24 09:34:18;;;;;;;8.30;6.80;;;;;;;5.14;79.52;99158.47;4940610;28;20209;-63
2024/03/24 09:36:44;;;;;;;7.43;5.47;;;;;;;5.18;79.12;99159.31;4945700;29;20572;-62
2024/03/24 09:39:13;;;;;;;8.60;6.57;;;;;;;5.23;79.41;99155.03;4937394;29;20236;-62
2024/03/24 09:41:42;;;;;;;7.43;6.43;;;;;;;5.28;79.39;99164.38;4937148;28;20212;-63
2024/03/24 09:44:11;;;;;;;8.63;6.53;;;;;;;5.32;79.47;99160.09;4935908;29;20217;-62
2024/03/24 09:46:39;;;;;;;9.50;7.17;;;;;;;5.30;78.71;99155.00;4921589;29;20249;-64
2024/03/24 09:49:12;;;;;;;7.73;6.60;;;;;;;5.31;78.79;99158.41;4932399;28;20214;-63
2024/03/24 09:51:38;;;;;;;11.93;6.93;;;;;;;5.28;78.26;99160.97;4940939;28;20217;-63
2024/03/24 09:54:09;;;;;;;8.20;6.50;;;;;;;5.27;78.20;99160.13;4934786;29;20213;-63
2024/03/24 09:56:36;;;;;;;8.63;6.03;;;;;;;5.33;78.40;99149.88;4936356;29;20213;-61
2024/03/24 09:59:05;;;;;;;7.97;6.67;;;;;;;5.42;78.55;99148.13;4936310;29;20229;-63
2024/03/24 10:01:31;;;;;;;9.07;6.13;;;;;;;5.52;77.68;99147.22;4934269;29;20220;-66
2024/03/24 10:03:58;;;;;;;9.20;6.43;;;;;;;5.71;78.15;99146.25;4932684;29;20220;-61
2024/03/24 10:06:26;;;;;;;10.10;6.17;;;;;;;5.95;77.20;99150.38;4939866;28;20579;-62
2024/03/24 10:08:53;;;;;;;8.70;6.13;;;;;;;6.26;77.38;99150.16;4935374;29;20217;-64
2024/03/24 10:11:27;;;;;;;7.80;6.00;;;;;;;6.63;75.20;99137.84;4935320;29;20210;-64
2024/03/24 10:13:54;;;;;;;12.40;6.00;;;;;;;6.84;72.86;99130.78;4930615;29;20217;-61
2024/03/24 10:16:20;;;;;;;9.10;5.60;;;;;;;7.08;71.55;99138.22;4934663;29;20220;-61
2024/03/24 10:18:48;;;;;;;9.70;5.73;;;;;;;7.43;71.63;99124.94;4931081;28;20260;-61
2024/03/24 10:21:14;;;;;;;5.93;4.97;;;;;;;7.86;70.16;99120.91;4935321;29;20209;-60
2024/03/24 10:23:43;;;;;;;7.63;5.37;;;;;;;8.21;65.96;99121.19;4930591;29;20201;-60
2024/03/24 10:26:09;;;;;;;7.67;4.97;;;;;;;8.49;66.76;99113.03;4933298;28;20217;-62
2024/03/24 10:28:36;;;;;;;6.57;4.57;;;;;;;8.58;62.68;99118.00;4930921;29;20267;-61
2024/03/24 10:31:07;;;;;;;5.73;3.83;;;;;;;8.43;62.11;99110.56;4928006;29;20202;-62
2024/03/24 10:33:39;;;;;;;3.50;3.20;;;;;;;8.56;60.39;99114.63;4941413;29;20201;-61
2024/03/24 10:36:05;;;;;;;3.80;2.50;;;;;;;8.71;58.32;99113.47;4932097;29;20217;-59
2024/03/24 10:38:34;;;;;;;3.80;2.70;;;;;;;8.81;58.65;99101.31;4932398;29;20209;-61
2024/03/24 10:41:02;;;;;;;4.23;3.20;;;;;;;9.07;56.15;99093.94;4939535;29;20213;-60
2024/03/24 10:43:29;;;;;;;5.33;3.17;;;;;;;9.25;55.19;99094.44;4941971;29;20676;-61
2024/03/24 10:45:57;;;;;;;3.83;3.13;;;;;;;9.02;54.91;99093.19;4932752;29;20225;-61
2024/03/24 10:48:28;;;;;;;5.00;3.30;;;;;;;8.67;56.13;99087.00;4929970;29;20217;-62
2024/03/24 10:50:55;;;;;;;6.40;3.37;;;;;;;8.32;57.01;99087.66;4935183;29;20201;-60
2024/03/24 10:53:24;;;;;;;4.77;3.40;;;;;;;8.22;59.30;99086.94;4932701;29;20209;-59
2024/03/24 10:55:51;;;;;;;4.63;3.60;;;;;;;8.43;59.03;99083.19;4932051;29;20575;-60
2024/03/24 10:58:21;;;;;;;5.33;3.40;;;;;;;8.66;59.88;99076.78;4934864;29;20665;-60
2024/03/24 11:00:48;;;;;;;5.60;3.47;;;;;;;9.08;57.78;99067.34;4936112;28;20232;-60
2024/03/24 11:03:15;;;;;;;3.77;2.80;;;;;;;9.47;56.20;99067.38;4936179;28;20581;-61
2024/03/24 11:05:47;;;;;;;4.40;3.10;;;;;;;9.75;53.56;99071.84;4932073;29;20622;-62
2024/03/24 11:08:15;;;;;;;4.70;3.80;;;;;;;9.83;55.90;99069.94;4935294;28;20220;-61
2024/03/24 11:10:43;;;;;;;4.40;3.33;;;;;;;10.05;54.78;99065.97;4936879;29;20217;-60
2024/03/24 11:13:11;;;;;;;5.47;3.47;;;;;;;10.25;53.57;99051.75;4936950;29;20216;-61
2024/03/24 11:15:42;;;;;;;5.10;3.60;;;;;;;10.51;51.01;99061.38;4933342;29;20220;-62
2024/03/24 11:18:20;;;;;;;3.80;3.03;;;;;;;10.58;49.06;99066.31;4934637;29;20240;-59
2024/03/24 11:20:51;;;;;;;5.00;3.10;;;;;;;10.18;51.45;99057.94;4932769;29;20229;-62
2024/03/24 11:23:19;;;;;;;3.50;3.00;;;;;;;10.00;50.76;99062.66;4939413;29;20213;-60
2024/03/24 11:25:49;;;;;;;4.00;2.80;;;;;;;9.90;52.62;99056.91;4936348;28;20216;-59
2024/03/24 11:28:40;;;;;;;4.33;3.13;;;;;;;9.87;52.31;99045.84;4938162;29;20230;-58
2024/03/24 11:31:14;;;;;;;4.60;3.20;;;;;;;9.72;52.84;99047.06;4939247;29;20217;-68
2024/03/24 11:33:40;;;;;;;6.67;3.53;;;;;;;9.68;54.12;99048.00;4937658;29;20217;-60
2024/03/24 11:36:25;;;;;;;5.47;3.47;;;;;;;9.90;54.30;99045.75;4938941;29;20209;-62